createdAt,value
2022-10-22T00:02:09.879Z,9.90
2022-10-22T00:05:12.952Z,9.89
2022-10-22T00:08:17.217Z,9.88
2022-10-22T00:11:20.762Z,9.91
2022-10-22T00:14:23.590Z,9.90
2022-10-22T00:17:26.690Z,9.90
2022-10-22T00:20:29.314Z,9.89
2022-10-22T00:23:32.186Z,9.91
2022-10-22T00:26:35.041Z,9.91
2022-10-22T00:29:37.939Z,9.91
2022-10-22T00:32:40.752Z,9.89
2022-10-22T00:35:45.405Z,9.91
2022-10-22T00:38:49.086Z,9.93
2022-10-22T00:41:54.601Z,9.95
2022-10-22T00:45:08.350Z,9.95
2022-10-22T00:48:20.955Z,9.95
2022-10-22T00:51:27.764Z,9.98
2022-10-22T00:54:30.765Z,9.99
2022-10-22T00:57:34.937Z,9.99
2022-10-22T01:00:38.460Z,9.98
2022-10-22T01:03:41.107Z,9.98
2022-10-22T01:06:43.875Z,9.95
2022-10-22T01:10:14.661Z,9.89
2022-10-22T01:14:04.700Z,9.83
2022-10-22T01:17:24.997Z,9.79
2022-10-22T01:20:55.420Z,9.77
2022-10-22T01:24:27.231Z,9.73
2022-10-22T01:27:36.184Z,9.69
2022-10-22T01:30:40.334Z,9.63
2022-10-22T01:33:51.339Z,9.60
2022-10-22T01:36:55.806Z,9.54
2022-10-22T01:40:01.955Z,9.50
2022-10-22T01:43:07.069Z,9.43
2022-10-22T01:46:11.665Z,9.40
2022-10-22T01:49:14.316Z,9.36
2022-10-22T01:52:26.230Z,9.33
2022-10-22T01:55:43.162Z,9.23
2022-10-22T01:58:55.911Z,9.15
2022-10-22T02:02:10.812Z,9.08
2022-10-22T02:05:30.269Z,9.10
2022-10-22T02:08:36.580Z,9.17
2022-10-22T02:11:41.796Z,9.21
2022-10-22T02:14:45.697Z,9.24
2022-10-22T02:17:50.745Z,9.27
2022-10-22T02:20:54.744Z,9.28
2022-10-22T02:23:57.753Z,9.26
2022-10-22T02:27:15.406Z,9.23
2022-10-22T02:30:21.382Z,9.25
2022-10-22T02:33:29.966Z,9.25
2022-10-22T02:36:33.064Z,9.24
2022-10-22T02:39:38.551Z,9.18
2022-10-22T02:42:42.517Z,9.13
2022-10-22T02:45:47.666Z,9.13
2022-10-22T02:48:50.681Z,9.06
2022-10-22T02:51:53.305Z,9.04
2022-10-22T02:54:55.956Z,9.05
2022-10-22T02:57:58.676Z,9.07
2022-10-22T03:01:02.053Z,9.07
2022-10-22T03:04:05.522Z,9.08
2022-10-22T03:07:10.090Z,8.97
2022-10-22T03:10:13.613Z,8.95
2022-10-22T03:13:18.071Z,8.90
2022-10-22T03:16:20.639Z,8.82
2022-10-22T03:19:24.860Z,8.79
2022-10-22T03:22:31.931Z,8.79
2022-10-22T03:25:35.963Z,8.82
2022-10-22T03:28:41.462Z,8.83
2022-10-22T03:31:45.120Z,8.83
2022-10-22T03:34:48.481Z,8.75
2022-10-22T03:37:51.824Z,8.76
2022-10-22T03:40:54.508Z,8.73
2022-10-22T03:43:58.051Z,8.76
2022-10-22T03:47:02.739Z,8.78
2022-10-22T03:50:06.446Z,8.78
2022-10-22T03:53:10.694Z,8.74
2022-10-22T03:56:13.710Z,8.60
2022-10-22T03:59:16.496Z,8.48
2022-10-22T04:02:19.417Z,8.44
2022-10-22T04:05:23.485Z,8.42
2022-10-22T04:08:26.137Z,8.43
2022-10-22T04:11:28.959Z,8.47
2022-10-22T04:14:32.955Z,8.43
2022-10-22T04:17:37.038Z,8.42
2022-10-22T04:20:41.870Z,8.38
2022-10-22T04:23:51.048Z,8.31
2022-10-22T04:26:55.832Z,8.26
2022-10-22T04:29:59.259Z,8.21
2022-10-22T04:33:06.374Z,8.11
2022-10-22T04:39:22.556Z,8.08
2022-10-22T04:42:25.666Z,8.10
2022-10-22T04:45:28.838Z,8.05
2022-10-22T04:48:31.751Z,7.95
2022-10-22T04:51:34.184Z,7.93
2022-10-22T04:54:36.954Z,7.93
2022-10-22T04:57:40.365Z,7.80
2022-10-22T05:00:45.039Z,7.78
2022-10-22T05:03:58.275Z,7.78
2022-10-22T05:07:02.090Z,7.70
2022-10-22T05:10:10.071Z,7.76
2022-10-22T05:13:13.660Z,7.75
2022-10-22T05:16:18.243Z,7.70
2022-10-22T05:19:26.056Z,7.61
2022-10-22T05:22:30.451Z,7.70
2022-10-22T05:25:40.054Z,7.81
2022-10-22T05:28:45.520Z,7.88
2022-10-22T05:31:50.351Z,7.96
2022-10-22T05:34:56.038Z,8.03
2022-10-22T05:38:02.575Z,8.11
2022-10-22T05:41:10.983Z,8.09
2022-10-22T05:44:15.811Z,8.06
2022-10-22T05:47:18.553Z,8.08
2022-10-22T05:50:21.924Z,8.13
2022-10-22T05:53:26.149Z,8.20
2022-10-22T05:56:32.111Z,8.20
2022-10-22T05:59:35.800Z,8.34
2022-10-22T06:02:39.494Z,8.47
2022-10-22T06:05:47.080Z,8.51
2022-10-22T06:08:56.346Z,8.62
2022-10-22T06:12:00.500Z,8.65
2022-10-22T06:15:05.132Z,8.81
2022-10-22T06:18:10.102Z,8.99
2022-10-22T06:21:16.167Z,9.18
2022-10-22T06:24:20.038Z,9.33
2022-10-22T06:27:24.067Z,9.43
2022-10-22T06:30:27.319Z,9.69
2022-10-22T06:33:34.156Z,9.80
2022-10-22T06:36:43.765Z,9.83
2022-10-22T06:39:49.382Z,9.93
2022-10-22T06:42:53.036Z,10.28
2022-10-22T06:46:00.881Z,10.84
2022-10-22T06:49:06.252Z,11.25
2022-10-22T06:52:11.280Z,11.80
2022-10-22T06:55:16.051Z,12.16
2022-10-22T06:58:19.555Z,12.20
2022-10-22T07:01:28.455Z,12.35
2022-10-22T07:04:38.048Z,12.54
2022-10-22T07:07:40.985Z,12.53
2022-10-22T07:10:45.188Z,12.36
2022-10-22T07:13:51.024Z,12.14
2022-10-22T07:16:59.099Z,12.10
2022-10-22T07:20:05.980Z,12.17
2022-10-22T07:23:09.305Z,11.81
2022-10-22T07:26:24.991Z,11.45
2022-10-22T07:29:35.283Z,11.50
2022-10-22T07:32:46.966Z,11.56
2022-10-22T07:35:52.012Z,12.36
2022-10-22T07:38:57.658Z,13.01
2022-10-22T07:42:04.342Z,13.30
2022-10-22T07:45:08.536Z,14.14
2022-10-22T07:48:12.905Z,15.33
2022-10-22T07:51:16.767Z,16.09
2022-10-22T07:54:22.201Z,16.62
2022-10-22T07:57:33.073Z,17.34
2022-10-22T08:00:43.228Z,17.92
2022-10-22T08:03:46.673Z,18.57
2022-10-22T08:06:52.094Z,19.11
2022-10-22T08:09:55.497Z,19.20
2022-10-22T08:13:00.200Z,19.19
2022-10-22T08:16:04.260Z,19.22
2022-10-22T08:27:31.313Z,19.26
2022-10-22T08:30:38.682Z,20.34
2022-10-22T08:33:42.571Z,21.00
2022-10-22T08:36:46.055Z,21.13
2022-10-22T08:39:51.097Z,19.67
2022-10-22T08:43:30.983Z,17.77
2022-10-22T08:46:56.043Z,16.82
2022-10-22T08:50:01.083Z,15.74
2022-10-22T08:53:12.684Z,15.62
2022-10-22T08:56:16.524Z,15.69
2022-10-22T08:59:56.083Z,15.41
2022-10-22T09:03:10.648Z,15.40
2022-10-22T09:06:29.029Z,15.19
2022-10-22T09:09:40.989Z,15.37
2022-10-22T09:12:47.114Z,15.21
2022-10-22T09:15:58.939Z,15.10
2022-10-22T09:19:25.043Z,15.08
2022-10-22T09:22:55.865Z,14.94
2022-10-22T09:26:02.037Z,14.88
2022-10-22T09:29:07.262Z,14.92
2022-10-22T09:32:11.974Z,14.87
2022-10-22T09:35:15.442Z,14.97
2022-10-22T09:38:23.389Z,14.85
2022-10-22T09:41:33.104Z,14.95
2022-10-22T09:44:42.713Z,15.17
2022-10-22T09:48:01.404Z,15.38
2022-10-22T09:51:20.530Z,15.43
2022-10-22T09:54:27.992Z,15.44
2022-10-22T09:57:40.935Z,15.60
2022-10-22T10:00:55.137Z,15.57
2022-10-22T10:04:09.387Z,15.68
2022-10-22T10:07:24.055Z,15.62
2022-10-22T10:10:49.198Z,15.39
2022-10-22T10:14:07.031Z,15.37
2022-10-22T10:17:16.314Z,15.59
2022-10-22T10:20:54.523Z,15.72
2022-10-22T10:24:11.536Z,15.77
2022-10-22T10:27:59.502Z,15.71
2022-10-22T10:31:34.110Z,15.52
2022-10-22T10:35:06.308Z,15.42
2022-10-22T10:38:37.078Z,15.59
2022-10-22T10:42:22.972Z,15.75
2022-10-22T10:45:55.652Z,15.84
2022-10-22T10:49:36.048Z,16.02
2022-10-22T10:52:57.055Z,15.76
2022-10-22T10:56:40.497Z,15.80
2022-10-22T11:00:10.112Z,15.87
2022-10-22T11:03:27.044Z,15.81
2022-10-22T11:06:35.248Z,15.82
2022-10-22T11:09:48.320Z,15.80
2022-10-22T11:12:57.280Z,15.77
2022-10-22T11:16:22.489Z,15.75
2022-10-22T11:19:51.537Z,15.73
2022-10-22T11:23:19.679Z,15.68
2022-10-22T11:26:37.664Z,15.66
2022-10-22T11:29:52.066Z,15.66
2022-10-22T11:33:03.075Z,15.77
2022-10-22T11:36:09.022Z,15.80
2022-10-22T11:39:49.068Z,15.89
2022-10-22T11:43:05.231Z,15.90
2022-10-22T11:46:28.730Z,16.02
2022-10-22T11:49:47.035Z,16.02
2022-10-22T11:53:06.170Z,16.11
2022-10-22T11:56:15.038Z,16.22
2022-10-22T11:59:42.255Z,16.25
2022-10-22T12:02:46.035Z,16.41
2022-10-22T12:06:14.038Z,16.47
2022-10-22T12:09:19.994Z,16.53
2022-10-22T12:12:26.049Z,16.60
2022-10-22T12:15:29.780Z,16.52
2022-10-22T12:18:48.349Z,16.59
2022-10-22T12:22:26.364Z,16.69
2022-10-22T12:25:36.087Z,16.61
2022-10-22T12:28:40.808Z,16.55
2022-10-22T12:31:51.145Z,16.37
2022-10-22T12:34:56.449Z,16.25
2022-10-22T12:38:12.426Z,16.06
2022-10-22T12:41:17.246Z,16.00
2022-10-22T12:44:23.047Z,15.84
2022-10-22T12:47:32.210Z,15.77
2022-10-22T12:50:41.401Z,15.66
2022-10-22T12:53:56.952Z,15.56
2022-10-22T12:57:02.053Z,15.46
2022-10-22T13:00:23.157Z,15.37
2022-10-22T13:03:34.028Z,15.32
2022-10-22T13:06:45.883Z,15.31
2022-10-22T13:10:02.066Z,15.30
2022-10-22T13:13:36.091Z,15.28
2022-10-22T13:16:40.005Z,15.26
2022-10-22T13:20:05.483Z,15.26
2022-10-22T13:23:24.596Z,15.27
2022-10-22T13:26:37.717Z,15.26
2022-10-22T13:29:42.607Z,15.25
2022-10-22T13:33:04.237Z,15.25
2022-10-22T13:36:11.961Z,15.23
2022-10-22T13:39:22.345Z,15.25
2022-10-22T13:42:28.606Z,15.24
2022-10-22T13:45:32.022Z,15.26
2022-10-22T13:48:37.242Z,15.25
2022-10-22T13:51:44.232Z,15.21
2022-10-22T13:54:47.761Z,15.20
2022-10-22T13:57:53.685Z,15.13
2022-10-22T14:01:10.651Z,15.13
2022-10-22T14:04:15.776Z,15.15
2022-10-22T14:07:23.111Z,15.21
2022-10-22T14:10:29.151Z,15.25
2022-10-22T14:13:35.109Z,15.32
2022-10-22T14:16:42.069Z,15.39
2022-10-22T14:19:51.032Z,15.41
2022-10-22T14:22:57.481Z,15.40
2022-10-22T14:26:06.035Z,15.35
2022-10-22T14:29:11.855Z,15.32
2022-10-22T14:32:21.503Z,15.29
2022-10-22T14:35:34.440Z,15.28
2022-10-22T14:38:45.100Z,15.23
2022-10-22T14:41:52.068Z,15.19
2022-10-22T14:45:03.969Z,15.14
2022-10-22T14:48:16.178Z,15.08
2022-10-22T14:51:25.081Z,15.03
2022-10-22T14:54:34.217Z,14.98
2022-10-22T14:57:46.266Z,14.93
2022-10-22T15:00:50.114Z,14.88
2022-10-22T15:04:00.197Z,14.84
2022-10-22T15:07:10.096Z,14.78
2022-10-22T15:10:15.021Z,14.72
2022-10-22T15:13:24.956Z,14.66
2022-10-22T15:16:28.722Z,14.66
2022-10-22T15:19:36.202Z,14.61
2022-10-22T15:22:40.362Z,14.59
2022-10-22T15:25:44.758Z,14.58
2022-10-22T15:28:57.090Z,14.53
2022-10-22T15:32:11.083Z,14.47
2022-10-22T15:35:15.037Z,14.43
2022-10-22T15:38:33.569Z,14.40
2022-10-22T15:41:40.220Z,14.37
2022-10-22T15:44:45.192Z,14.34
2022-10-22T15:47:51.977Z,14.29
2022-10-22T15:50:58.149Z,14.24
2022-10-22T15:54:10.149Z,14.20
2022-10-22T15:57:20.161Z,14.16
2022-10-22T16:00:27.375Z,14.10
2022-10-22T16:03:36.047Z,14.05
2022-10-22T16:06:46.310Z,13.99
2022-10-22T16:10:01.689Z,13.91
2022-10-22T16:13:06.043Z,13.85
2022-10-22T16:16:12.066Z,13.78
2022-10-22T16:19:19.054Z,13.67
2022-10-22T16:22:32.251Z,13.55
2022-10-22T16:25:40.120Z,13.48
2022-10-22T16:28:51.058Z,13.39
2022-10-22T16:32:03.052Z,13.31
2022-10-22T16:35:11.625Z,13.24
2022-10-22T16:38:20.315Z,13.14
2022-10-22T16:41:35.174Z,13.07
2022-10-22T16:44:39.023Z,13.01
2022-10-22T16:47:47.034Z,12.95
2022-10-22T16:50:58.085Z,12.89
2022-10-22T16:54:11.343Z,12.80
2022-10-22T16:57:19.600Z,12.78
2022-10-22T17:00:29.493Z,12.73
2022-10-22T17:03:35.069Z,12.67
2022-10-22T17:06:42.034Z,12.64
2022-10-22T17:09:52.058Z,12.63
2022-10-22T17:13:02.454Z,12.60
2022-10-22T17:16:12.028Z,12.55
2022-10-22T17:19:25.275Z,12.52
2022-10-22T17:22:34.474Z,12.48
2022-10-22T17:25:51.113Z,12.42
2022-10-22T17:28:56.659Z,12.30
2022-10-22T17:32:11.969Z,12.27
2022-10-22T17:35:20.286Z,12.24
2022-10-22T17:38:29.199Z,12.23
2022-10-22T17:41:39.899Z,12.16
2022-10-22T17:44:47.065Z,12.14
2022-10-22T17:47:54.249Z,12.07
2022-10-22T17:50:59.412Z,12.02
2022-10-22T17:54:07.372Z,11.96
2022-10-22T17:57:23.094Z,12.00
2022-10-22T18:00:32.514Z,11.88
2022-10-22T18:03:43.453Z,11.91
2022-10-22T18:06:50.572Z,11.87
2022-10-22T18:09:55.019Z,11.81
2022-10-22T18:12:58.698Z,11.78
2022-10-22T18:16:12.992Z,11.77
2022-10-22T18:19:25.999Z,11.75
2022-10-22T18:22:36.966Z,11.69
2022-10-22T18:25:46.971Z,11.64
2022-10-22T18:28:54.081Z,11.64
2022-10-22T18:32:13.266Z,11.61
2022-10-22T18:35:28.416Z,11.61
2022-10-22T18:38:36.048Z,11.60
2022-10-22T18:41:39.737Z,11.61
2022-10-22T18:44:48.988Z,11.62
2022-10-22T18:48:00.351Z,11.65
2022-10-22T18:51:11.200Z,11.62
2022-10-22T18:54:23.146Z,11.52
2022-10-22T18:57:29.559Z,11.55
2022-10-22T19:00:37.098Z,11.46
2022-10-22T19:03:56.964Z,11.41
2022-10-22T19:07:03.056Z,11.41
2022-10-22T19:10:13.954Z,11.39
2022-10-22T19:13:19.687Z,11.32
2022-10-22T19:16:24.314Z,11.29
2022-10-22T19:19:30.055Z,11.23
2022-10-22T19:22:34.043Z,11.19
2022-10-22T19:25:46.089Z,11.11
2022-10-22T19:29:03.147Z,11.07
2022-10-22T19:32:13.762Z,10.99
2022-10-22T19:35:18.242Z,10.86
2022-10-22T19:38:24.014Z,10.84
2022-10-22T19:41:36.095Z,10.78
2022-10-22T19:44:57.272Z,10.68
2022-10-22T19:48:01.182Z,10.63
2022-10-22T19:51:18.003Z,10.56
2022-10-22T19:54:23.054Z,10.57
2022-10-22T19:57:28.154Z,10.56
2022-10-22T20:00:35.167Z,10.52
2022-10-22T20:03:42.914Z,10.50
2022-10-22T20:06:56.972Z,10.54
2022-10-22T20:10:06.929Z,10.48
2022-10-22T20:13:15.014Z,10.49
2022-10-22T20:16:24.389Z,10.46
2022-10-22T20:19:31.034Z,10.48
2022-10-22T20:22:35.998Z,10.38
2022-10-22T20:25:44.071Z,10.33
2022-10-22T20:28:56.360Z,10.26
2022-10-22T20:32:08.744Z,10.25
2022-10-22T20:35:16.650Z,10.16
2022-10-22T20:38:19.783Z,10.14
2022-10-22T20:41:25.335Z,10.19
2022-10-22T20:44:38.751Z,10.12
2022-10-22T20:47:51.406Z,10.10
2022-10-22T20:51:00.701Z,10.02
2022-10-22T20:54:06.435Z,9.98
2022-10-22T20:57:09.721Z,9.98
2022-10-22T21:00:14.008Z,9.98
2022-10-22T21:03:17.559Z,10.00
2022-10-22T21:06:25.042Z,10.02
2022-10-22T21:09:28.998Z,10.00
2022-10-22T21:12:32.336Z,9.98
2022-10-22T21:15:42.947Z,9.92
2022-10-22T21:18:46.978Z,9.88
2022-10-22T21:21:49.738Z,9.83
2022-10-22T21:24:52.752Z,9.82
2022-10-22T21:27:55.739Z,9.79
2022-10-22T21:30:59.148Z,9.75
2022-10-22T21:34:02.542Z,9.72
2022-10-22T21:37:05.647Z,9.70
2022-10-22T21:40:08.757Z,9.67
2022-10-22T21:43:12.972Z,9.64
2022-10-22T21:46:24.142Z,9.61
2022-10-22T21:49:27.316Z,9.58
2022-10-22T21:52:30.055Z,9.60
2022-10-22T21:55:38.027Z,9.60
2022-10-22T21:58:41.086Z,9.58
2022-10-22T22:01:44.271Z,9.58
2022-10-22T22:04:48.021Z,9.62
2022-10-22T22:07:50.691Z,9.63
2022-10-22T22:11:01.004Z,9.65
2022-10-22T22:14:03.936Z,9.66
2022-10-22T22:17:07.624Z,9.67
2022-10-22T22:20:11.917Z,9.69
2022-10-22T22:23:17.244Z,9.75
2022-10-22T22:26:28.735Z,9.78
2022-10-22T22:29:32.940Z,9.77
2022-10-22T22:32:35.730Z,9.72
2022-10-22T22:38:48.412Z,9.67
2022-10-22T22:41:51.787Z,9.65
2022-10-22T22:44:55.243Z,9.60
2022-10-22T22:47:58.210Z,9.49
2022-10-22T22:51:04.664Z,9.45
2022-10-22T22:54:10.097Z,9.40
2022-10-22T22:57:14.274Z,9.39
2022-10-22T23:00:21.207Z,9.37
2022-10-22T23:03:24.206Z,9.30
2022-10-22T23:06:29.647Z,9.19
2022-10-22T23:09:32.618Z,9.17
2022-10-22T23:12:36.561Z,9.15
2022-10-22T23:15:40.525Z,9.12
2022-10-22T23:18:46.354Z,9.09
2022-10-22T23:21:51.735Z,9.06
2022-10-22T23:24:54.825Z,9.05
2022-10-22T23:27:57.538Z,9.04
2022-10-22T23:31:05.109Z,8.98
2022-10-22T23:34:08.524Z,8.96
2022-10-22T23:37:12.309Z,8.97
2022-10-22T23:40:14.884Z,8.93
2022-10-22T23:43:17.559Z,8.92
2022-10-22T23:46:20.155Z,8.94
2022-10-22T23:49:23.567Z,8.97
2022-10-22T23:52:26.554Z,8.95
2022-10-22T23:55:29.713Z,8.94
2022-10-22T23:58:34.178Z,8.95
